Hlavní strana
METAR-TAF:

METAR-TAF

Letiště :

Čeboksary, Rusko

zeměpisná šířka: 56-05-24N, zeměpisná délka: 047-20-50E, výška: 171 m

Aktuální stav počasí

Zpráva byla vytvořena před 28 minutami, v 02:00 UTC
Západojihozápadní vítr 10 kt
Teplota 6°C
Vlhkost vzduchu 93%
Tlak 1015 hPa
Viditelnost: 5000 m
Skoro jasno ve výšce 4000 ft
kouřmo

METAR: UWKS 190200Z 24005MPS 5000 BR FEW040 06/05 Q1015 R24/010060 NOSIG RMK QFE747

Čas: 05:28 (02:28 UTC)

Předpověď počasí

Zpráva byla vytvořena před 3 hodinami a 48 minutami, v 22:40 UTC
Předpověď platná od 19 v 00 UTC do 19 v 09 UTC
Jihozápadní vítr 10 kt s nárazy do 19 kt
Viditelnost: 3100 m
Oblačno až skoro zataženo ve výšce 1100 ft
kouřmo
Pravděpodobnost 40% :
Dočasný
od 19 v 00 UTC do 19 v 07 UTC
Viditelnost: 0400 m
ve výšce 200 ft
mlha

TAF: UWKS 182240Z 1900/1909 23005G10MPS 3100 BR BKN011 PROB40 TEMPO 1900/1907 0400 FG VV002

Stav a předpovědi počasí z více než 4 000 letišť (zprávy METAR a TAF).

Červené a žluté tečky na mapě představují dostupné meteorologické stanice.

Když kurzor umístíte na tečku, zobrazí se název stanice.

Pak kliknutím zobrazíte stav a předpověď počasí.

Chcete-li změnit mapu, kliknutím na zelené tlačítko se znaménkem +mapu přiblížíte, kliknutím na zelené tlačítko se znaménkem – mapu oddálíte a kliknutím na zelené šipky přejdete na sousední mapy.


METAR-TAF: